Altair, TX (77412)

11:20 AM CST on February 14, 2016 (GMT -0600)
Winslow Hills, Alleyton | | Change Station
CLOSE
Current Station
Personal Weather Station
Location: Alleyton, TX
Elevation: 256 ft
Nearby Weather Stations

Elev 256 ft 29.71 °N, 96.39 °W | Updated 15 seconds ago

Overcast
Overcast
71.6 °F
Feels Like 73 °F
N
2.9
Wind Variable Wind from South
Gusts 4.9 mph

Today
High -- | Low -- °F
--% Chance of Precip.
Yesterday
High -- | Low -- °F
Precip. -- in
Pressure 30.01 in
Visibility 10.0 miles
Clouds Mostly Cloudy 2500 ft
Overcast 3300 ft
Heat Index 73 °F
Dew Point 64 °F
Humidity 76%
Rainfall 0.00 in
Snow Depth Not available.
7:06 AM 6:14 PM
Waxing Crescent, 43% visible
METAR K3T5 141655Z AUTO 19014G21KT 10SM BKN025 OVC033 22/15 A3001 RMK AO2 T02150154
Pressure 30.01 in
Visibility 10.0 miles
Clouds Mostly Cloudy 2500 ft
Overcast 3300 ft
Heat Index 73 °F
Dew Point 64 °F
Humidity 76%
Rainfall 0.00 in
Snow Depth Not available.
7:06 AM 6:14 PM
Waxing Crescent, 43% visible
METAR K3T5 141655Z AUTO 19014G21KT 10SM BKN025 OVC033 22/15 A3001 RMK AO2 T02150154

10-Day Weather Forecast

Almanac

Astronomy

Feb. 14, 2016 Rise Set
Actual Time
Civil Twilight
Nautical Twilight
Astronomical Twilight
Moon
Length of Visible Light
Length of Day
Tomorrow will be .
, % of the Moon is Illuminated

Today's Extremes

State Highs State Lows

Community

WunderPhotos

Upload Photos

1,892,853 photos uploaded!

WunderBlog® & News

Nearby

Air Quality

  Air Quality AQ Index Pollutant
Not available.

Snow Depth

Station Depth Elevation

Earthquake Activity

City Distance Mag. Time & Date
Minimum magnitude displayed is 2.5.

Coastal Water Temperatures

Place Temperature

Stations

Nearby Weather Stations

Station Location Temp. Windchill Dew Point Humidity Wind Precip. Elev Updated Type
                   

Watches & Warnings

There are currently no watches in effect.